sensor_id;sensor_type;location;lat;lon;timestamp;pressure;altitude;pressure_sealevel;temperature;humidity
40794;BME280;26502;51.886;15.604;2023-12-20T00:02:41;100076.20;;;5.37;93.75
40794;BME280;26502;51.886;15.604;2023-12-20T00:08:11;100077.29;;;5.35;93.71
40794;BME280;26502;51.886;15.604;2023-12-20T00:13:38;100063.75;;;5.34;93.67
40794;BME280;26502;51.886;15.604;2023-12-20T00:19:04;100063.55;;;5.35;93.84
40794;BME280;26502;51.886;15.604;2023-12-20T00:24:31;100054.97;;;5.33;94.09
40794;BME280;26502;51.886;15.604;2023-12-20T00:29:57;100049.54;;;5.31;94.06
40794;BME280;26502;51.886;15.604;2023-12-20T00:35:23;100049.58;;;5.30;94.17
40794;BME280;26502;51.886;15.604;2023-12-20T00:40:50;100057.52;;;5.28;94.10
40794;BME280;26502;51.886;15.604;2023-12-20T00:46:16;100061.91;;;5.29;93.86
40794;BME280;26502;51.886;15.604;2023-12-20T00:51:42;100053.64;;;5.29;93.87
40794;BME280;26502;51.886;15.604;2023-12-20T00:57:08;100057.86;;;5.29;94.05
40794;BME280;26502;51.886;15.604;2023-12-20T01:02:34;100052.62;;;5.28;93.97
40794;BME280;26502;51.886;15.604;2023-12-20T01:08:02;100044.30;;;5.29;93.74
40794;BME280;26502;51.886;15.604;2023-12-20T01:13:28;100043.23;;;5.30;94.07
40794;BME280;26502;51.886;15.604;2023-12-20T01:18:54;100040.28;;;5.28;94.22
40794;BME280;26502;51.886;15.604;2023-12-20T01:24:21;100038.70;;;5.28;94.38
40794;BME280;26502;51.886;15.604;2023-12-20T01:29:47;100034.88;;;5.25;94.34
40794;BME280;26502;51.886;15.604;2023-12-20T01:35:13;100028.88;;;5.26;94.36
40794;BME280;26502;51.886;15.604;2023-12-20T01:40:40;100016.40;;;5.25;94.41
40794;BME280;26502;51.886;15.604;2023-12-20T01:46:06;100021.85;;;5.25;94.13
40794;BME280;26502;51.886;15.604;2023-12-20T01:51:33;100016.61;;;5.24;94.15
40794;BME280;26502;51.886;15.604;2023-12-20T01:57:00;100011.72;;;5.22;94.40
40794;BME280;26502;51.886;15.604;2023-12-20T02:02:28;99995.77;;;5.19;94.39
40794;BME280;26502;51.886;15.604;2023-12-20T02:07:56;99992.27;;;5.18;94.33
40794;BME280;26502;51.886;15.604;2023-12-20T02:13:27;99996.81;;;5.19;94.33
40794;BME280;26502;51.886;15.604;2023-12-20T02:18:53;99991.87;;;5.20;94.36
40794;BME280;26502;51.886;15.604;2023-12-20T02:24:19;99988.70;;;5.19;94.60
40794;BME280;26502;51.886;15.604;2023-12-20T02:29:45;99987.73;;;5.15;94.66
40794;BME280;26502;51.886;15.604;2023-12-20T02:35:12;99984.95;;;5.14;94.67
40794;BME280;26502;51.886;15.604;2023-12-20T02:40:38;99976.86;;;5.13;94.68
40794;BME280;26502;51.886;15.604;2023-12-20T02:46:04;99975.08;;;5.14;94.83
40794;BME280;26502;51.886;15.604;2023-12-20T02:51:30;99973.34;;;5.13;94.72
40794;BME280;26502;51.886;15.604;2023-12-20T02:56:56;99964.89;;;5.14;94.74
40794;BME280;26502;51.886;15.604;2023-12-20T03:02:22;99967.85;;;5.14;94.82
40794;BME280;26502;51.886;15.604;2023-12-20T03:07:49;99962.30;;;5.11;95.03
40794;BME280;26502;51.886;15.604;2023-12-20T03:13:15;99961.99;;;5.09;94.85
40794;BME280;26502;51.886;15.604;2023-12-20T03:18:42;99963.19;;;5.10;94.73
40794;BME280;26502;51.886;15.604;2023-12-20T03:24:08;99961.79;;;5.11;94.98
40794;BME280;26502;51.886;15.604;2023-12-20T03:29:34;99959.52;;;5.09;94.75
40794;BME280;26502;51.886;15.604;2023-12-20T03:35:02;99951.09;;;5.09;94.91
40794;BME280;26502;51.886;15.604;2023-12-20T03:40:28;99948.67;;;5.07;94.95
40794;BME280;26502;51.886;15.604;2023-12-20T03:45:54;99944.80;;;5.06;94.91
40794;BME280;26502;51.886;15.604;2023-12-20T03:51:20;99944.42;;;5.07;95.06
40794;BME280;26502;51.886;15.604;2023-12-20T03:56:47;99946.39;;;5.06;94.91
40794;BME280;26502;51.886;15.604;2023-12-20T04:02:15;99947.27;;;5.06;95.06
40794;BME280;26502;51.886;15.604;2023-12-20T04:07:42;99948.84;;;5.07;95.06
40794;BME280;26502;51.886;15.604;2023-12-20T04:13:09;99947.59;;;5.08;94.93
40794;BME280;26502;51.886;15.604;2023-12-20T04:18:35;99949.89;;;5.07;94.78
40794;BME280;26502;51.886;15.604;2023-12-20T04:24:01;99942.86;;;5.06;94.85
40794;BME280;26502;51.886;15.604;2023-12-20T04:29:27;99941.51;;;5.04;94.97
40794;BME280;26502;51.886;15.604;2023-12-20T04:34:53;99945.80;;;5.01;95.32
40794;BME280;26502;51.886;15.604;2023-12-20T04:40:20;99944.66;;;4.97;95.48
40794;BME280;26502;51.886;15.604;2023-12-20T04:45:46;99945.73;;;4.95;95.66
40794;BME280;26502;51.886;15.604;2023-12-20T04:51:12;99940.08;;;4.96;95.64
40794;BME280;26502;51.886;15.604;2023-12-20T04:56:38;99936.59;;;4.95;95.56
40794;BME280;26502;51.886;15.604;2023-12-20T05:02:04;99935.73;;;4.94;95.51
40794;BME280;26502;51.886;15.604;2023-12-20T05:07:31;99939.05;;;4.96;95.54
40794;BME280;26502;51.886;15.604;2023-12-20T05:12:58;99926.93;;;4.95;95.64
40794;BME280;26502;51.886;15.604;2023-12-20T05:18:24;99927.70;;;4.91;95.72
40794;BME280;26502;51.886;15.604;2023-12-20T05:23:50;99937.61;;;4.89;95.77
40794;BME280;26502;51.886;15.604;2023-12-20T05:29:17;99936.06;;;4.87;95.72
40794;BME280;26502;51.886;15.604;2023-12-20T05:34:43;99929.70;;;4.88;95.62
40794;BME280;26502;51.886;15.604;2023-12-20T05:40:10;99936.32;;;4.91;95.58
40794;BME280;26502;51.886;15.604;2023-12-20T05:45:36;99942.13;;;4.91;95.50
40794;BME280;26502;51.886;15.604;2023-12-20T05:51:03;99945.11;;;4.91;95.50
40794;BME280;26502;51.886;15.604;2023-12-20T05:56:29;99951.22;;;4.94;95.47
40794;BME280;26502;51.886;15.604;2023-12-20T06:01:55;99943.97;;;4.96;95.43
40794;BME280;26502;51.886;15.604;2023-12-20T06:07:21;99938.00;;;4.96;95.32
40794;BME280;26502;51.886;15.604;2023-12-20T06:12:47;99945.72;;;4.96;95.29
40794;BME280;26502;51.886;15.604;2023-12-20T06:18:14;99949.43;;;4.96;95.30
40794;BME280;26502;51.886;15.604;2023-12-20T06:23:41;99948.00;;;4.96;95.29
40794;BME280;26502;51.886;15.604;2023-12-20T06:29:08;99949.97;;;4.95;95.30
40794;BME280;26502;51.886;15.604;2023-12-20T06:34:34;99944.52;;;4.95;95.35
40794;BME280;26502;51.886;15.604;2023-12-20T06:40:00;99943.84;;;4.94;95.43
40794;BME280;26502;51.886;15.604;2023-12-20T06:45:26;99942.66;;;4.91;95.45
40794;BME280;26502;51.886;15.604;2023-12-20T06:50:52;99949.17;;;4.91;95.41
40794;BME280;26502;51.886;15.604;2023-12-20T06:56:20;99953.77;;;4.90;95.45
40794;BME280;26502;51.886;15.604;2023-12-20T07:01:50;99958.32;;;4.91;95.39
40794;BME280;26502;51.886;15.604;2023-12-20T07:07:16;99964.35;;;4.88;95.62
40794;BME280;26502;51.886;15.604;2023-12-20T07:12:42;99980.26;;;4.86;95.49
40794;BME280;26502;51.886;15.604;2023-12-20T07:18:09;99983.95;;;4.85;95.46
40794;BME280;26502;51.886;15.604;2023-12-20T07:23:35;99986.20;;;4.87;95.55
40794;BME280;26502;51.886;15.604;2023-12-20T07:29:01;99992.05;;;4.85;95.54
40794;BME280;26502;51.886;15.604;2023-12-20T07:34:29;100011.09;;;4.83;95.60
40794;BME280;26502;51.886;15.604;2023-12-20T07:39:55;100006.86;;;4.83;95.52
40794;BME280;26502;51.886;15.604;2023-12-20T07:45:21;100005.06;;;4.86;95.39
40794;BME280;26502;51.886;15.604;2023-12-20T07:50:47;100009.58;;;4.88;95.23
40794;BME280;26502;51.886;15.604;2023-12-20T07:56:18;100012.74;;;4.89;95.19
40794;BME280;26502;51.886;15.604;2023-12-20T08:01:44;100006.12;;;4.85;95.21
40794;BME280;26502;51.886;15.604;2023-12-20T08:07:11;100005.52;;;4.80;95.14
40794;BME280;26502;51.886;15.604;2023-12-20T08:12:37;100011.36;;;4.78;94.97
40794;BME280;26502;51.886;15.604;2023-12-20T08:18:05;100008.91;;;4.77;94.81
40794;BME280;26502;51.886;15.604;2023-12-20T08:23:32;100006.75;;;4.71;94.63
40794;BME280;26502;51.886;15.604;2023-12-20T08:28:59;100017.36;;;4.68;94.51
40794;BME280;26502;51.886;15.604;2023-12-20T08:34:27;100017.09;;;4.64;94.29
40794;BME280;26502;51.886;15.604;2023-12-20T08:39:54;100017.36;;;4.59;94.37
40794;BME280;26502;51.886;15.604;2023-12-20T08:45:20;100006.27;;;4.59;94.21
40794;BME280;26502;51.886;15.604;2023-12-20T08:50:48;100018.05;;;4.60;94.21
40794;BME280;26502;51.886;15.604;2023-12-20T08:56:16;100018.80;;;4.66;93.94
40794;BME280;26502;51.886;15.604;2023-12-20T09:01:42;100012.58;;;4.69;93.80
40794;BME280;26502;51.886;15.604;2023-12-20T09:07:11;100012.55;;;4.79;93.72
40794;BME280;26502;51.886;15.604;2023-12-20T09:12:46;100015.18;;;4.90;93.43
40794;BME280;26502;51.886;15.604;2023-12-20T09:18:12;100015.31;;;4.92;92.83
40794;BME280;26502;51.886;15.604;2023-12-20T09:23:38;100008.89;;;4.88;92.11
40794;BME280;26502;51.886;15.604;2023-12-20T09:29:04;99999.57;;;4.88;92.45
40794;BME280;26502;51.886;15.604;2023-12-20T09:34:32;99990.85;;;4.92;92.53
40794;BME280;26502;51.886;15.604;2023-12-20T09:39:58;99988.69;;;4.95;91.78
40794;BME280;26502;51.886;15.604;2023-12-20T09:45:25;99983.74;;;4.95;91.73
40794;BME280;26502;51.886;15.604;2023-12-20T09:50:51;99964.89;;;4.97;91.65
40794;BME280;26502;51.886;15.604;2023-12-20T09:56:17;99966.59;;;4.99;91.64
40794;BME280;26502;51.886;15.604;2023-12-20T10:01:45;99953.94;;;4.99;91.06
40794;BME280;26502;51.886;15.604;2023-12-20T10:07:12;99953.47;;;4.96;90.78
40794;BME280;26502;51.886;15.604;2023-12-20T10:12:38;99941.14;;;4.96;90.83
40794;BME280;26502;51.886;15.604;2023-12-20T10:18:05;99932.22;;;5.03;90.84
40794;BME280;26502;51.886;15.604;2023-12-20T10:23:31;99919.41;;;5.09;90.71
40794;BME280;26502;51.886;15.604;2023-12-20T10:29:00;99921.14;;;5.10;90.01
40794;BME280;26502;51.886;15.604;2023-12-20T10:34:28;99942.23;;;5.04;90.03
40794;BME280;26502;51.886;15.604;2023-12-20T10:39:55;99923.26;;;4.94;90.04
40794;BME280;26502;51.886;15.604;2023-12-20T10:45:22;99923.26;;;4.85;89.94
40794;BME280;26502;51.886;15.604;2023-12-20T10:50:49;99929.21;;;4.78;90.68
40794;BME280;26502;51.886;15.604;2023-12-20T10:56:17;99921.73;;;4.74;90.87
40794;BME280;26502;51.886;15.604;2023-12-20T11:01:44;99906.61;;;4.73;91.14
40794;BME280;26502;51.886;15.604;2023-12-20T11:07:19;99891.89;;;4.79;91.39
40794;BME280;26502;51.886;15.604;2023-12-20T11:12:52;99873.81;;;4.93;91.30
40794;BME280;26502;51.886;15.604;2023-12-20T11:18:19;99870.77;;;4.96;91.15
40794;BME280;26502;51.886;15.604;2023-12-20T11:23:45;99868.84;;;4.96;90.94
40794;BME280;26502;51.886;15.604;2023-12-20T11:29:31;99857.92;;;4.96;90.91
40794;BME280;26502;51.886;15.604;2023-12-20T11:34:59;99849.56;;;5.00;90.89
40794;BME280;26502;51.886;15.604;2023-12-20T11:40:26;99842.77;;;5.05;90.50
40794;BME280;26502;51.886;15.604;2023-12-20T11:45:52;99829.41;;;5.11;90.02
40794;BME280;26502;51.886;15.604;2023-12-20T11:51:18;99820.59;;;5.12;89.56
40794;BME280;26502;51.886;15.604;2023-12-20T11:56:44;99804.52;;;5.15;89.75
40794;BME280;26502;51.886;15.604;2023-12-20T12:02:13;99809.35;;;5.19;89.47
40794;BME280;26502;51.886;15.604;2023-12-20T12:07:39;99791.96;;;5.24;89.57
40794;BME280;26502;51.886;15.604;2023-12-20T12:13:06;99788.46;;;5.31;89.26
40794;BME280;26502;51.886;15.604;2023-12-20T12:18:32;99790.81;;;5.35;88.68
40794;BME280;26502;51.886;15.604;2023-12-20T12:24:08;99785.98;;;5.39;88.23
40794;BME280;26502;51.886;15.604;2023-12-20T12:29:34;99787.43;;;5.43;87.73
40794;BME280;26502;51.886;15.604;2023-12-20T12:35:02;99780.63;;;5.47;86.93
40794;BME280;26502;51.886;15.604;2023-12-20T12:40:28;99774.61;;;5.49;85.66
40794;BME280;26502;51.886;15.604;2023-12-20T12:45:54;99764.96;;;5.47;86.10
40794;BME280;26502;51.886;15.604;2023-12-20T12:51:21;99751.61;;;5.53;85.44
40794;BME280;26502;51.886;15.604;2023-12-20T12:56:48;99744.88;;;5.55;84.47
40794;BME280;26502;51.886;15.604;2023-12-20T13:02:15;99739.43;;;5.54;84.18
40794;BME280;26502;51.886;15.604;2023-12-20T13:07:42;99730.52;;;5.58;82.76
40794;BME280;26502;51.886;15.604;2023-12-20T13:13:09;99725.62;;;5.63;81.78
40794;BME280;26502;51.886;15.604;2023-12-20T13:18:35;99713.92;;;5.66;81.16
40794;BME280;26502;51.886;15.604;2023-12-20T13:24:02;99709.55;;;5.65;81.90
40794;BME280;26502;51.886;15.604;2023-12-20T13:29:28;99695.66;;;5.70;80.79
40794;BME280;26502;51.886;15.604;2023-12-20T13:34:54;99695.89;;;5.74;80.31
40794;BME280;26502;51.886;15.604;2023-12-20T13:40:20;99699.05;;;5.75;80.64
40794;BME280;26502;51.886;15.604;2023-12-20T13:45:46;99692.04;;;5.73;80.27
40794;BME280;26502;51.886;15.604;2023-12-20T13:51:13;99690.42;;;5.74;79.75
40794;BME280;26502;51.886;15.604;2023-12-20T13:56:41;99688.00;;;5.73;80.11
40794;BME280;26502;51.886;15.604;2023-12-20T14:02:08;99684.52;;;5.71;80.33
40794;BME280;26502;51.886;15.604;2023-12-20T14:07:34;99675.70;;;5.72;79.80
40794;BME280;26502;51.886;15.604;2023-12-20T14:13:00;99659.08;;;5.74;79.12
40794;BME280;26502;51.886;15.604;2023-12-20T14:18:26;99652.59;;;5.73;79.33
40794;BME280;26502;51.886;15.604;2023-12-20T14:23:54;99641.81;;;5.74;79.45
40794;BME280;26502;51.886;15.604;2023-12-20T14:29:20;99638.20;;;5.77;78.95
40794;BME280;26502;51.886;15.604;2023-12-20T14:34:46;99630.27;;;5.77;78.57
40794;BME280;26502;51.886;15.604;2023-12-20T14:40:13;99626.08;;;5.82;77.66
40794;BME280;26502;51.886;15.604;2023-12-20T14:45:41;99625.47;;;5.85;77.12
40794;BME280;26502;51.886;15.604;2023-12-20T14:51:07;99622.26;;;5.86;76.39
40794;BME280;26502;51.886;15.604;2023-12-20T14:56:33;99606.11;;;5.90;75.72
40794;BME280;26502;51.886;15.604;2023-12-20T15:01:59;99600.23;;;5.92;75.45
40794;BME280;26502;51.886;15.604;2023-12-20T15:07:29;99597.53;;;5.87;75.77
40794;BME280;26502;51.886;15.604;2023-12-20T15:12:55;99602.95;;;5.84;76.04
40794;BME280;26502;51.886;15.604;2023-12-20T15:18:21;99603.83;;;5.83;76.20
40794;BME280;26502;51.886;15.604;2023-12-20T15:23:47;99586.96;;;5.88;75.43
40794;BME280;26502;51.886;15.604;2023-12-20T15:29:17;99588.52;;;5.83;75.65
40794;BME280;26502;51.886;15.604;2023-12-20T15:34:43;99589.63;;;5.81;75.83
40794;BME280;26502;51.886;15.604;2023-12-20T15:40:12;99582.98;;;5.79;75.87
40794;BME280;26502;51.886;15.604;2023-12-20T15:45:38;99593.35;;;5.80;75.84
40794;BME280;26502;51.886;15.604;2023-12-20T15:51:07;99599.15;;;5.75;76.15
40794;BME280;26502;51.886;15.604;2023-12-20T15:56:33;99594.17;;;5.76;76.21
40794;BME280;26502;51.886;15.604;2023-12-20T16:01:59;99598.51;;;5.79;76.16
40794;BME280;26502;51.886;15.604;2023-12-20T16:07:25;99623.94;;;5.77;76.59
40794;BME280;26502;51.886;15.604;2023-12-20T16:12:51;99655.52;;;5.57;77.99
40794;BME280;26502;51.886;15.604;2023-12-20T16:18:17;99657.41;;;5.33;78.56
40794;BME280;26502;51.886;15.604;2023-12-20T16:23:43;99663.53;;;5.15;79.01
40794;BME280;26502;51.886;15.604;2023-12-20T16:29:10;99659.41;;;4.97;79.63
40794;BME280;26502;51.886;15.604;2023-12-20T16:34:37;99666.30;;;4.83;80.09
40794;BME280;26502;51.886;15.604;2023-12-20T16:40:04;99675.07;;;4.76;80.02
40794;BME280;26502;51.886;15.604;2023-12-20T16:45:30;99686.80;;;4.71;80.62
40794;BME280;26502;51.886;15.604;2023-12-20T16:50:56;99702.86;;;4.69;80.74
40794;BME280;26502;51.886;15.604;2023-12-20T16:56:23;99709.66;;;4.71;81.58
40794;BME280;26502;51.886;15.604;2023-12-20T17:01:49;99704.07;;;4.70;81.85
40794;BME280;26502;51.886;15.604;2023-12-20T17:07:16;99710.77;;;4.70;81.89
40794;BME280;26502;51.886;15.604;2023-12-20T17:12:42;99719.02;;;4.70;81.96
40794;BME280;26502;51.886;15.604;2023-12-20T17:18:08;99720.77;;;4.70;82.08
40794;BME280;26502;51.886;15.604;2023-12-20T17:23:35;99722.69;;;4.71;81.89
40794;BME280;26502;51.886;15.604;2023-12-20T17:29:01;99722.25;;;4.67;81.84
40794;BME280;26502;51.886;15.604;2023-12-20T17:34:27;99724.80;;;4.63;81.76
40794;BME280;26502;51.886;15.604;2023-12-20T17:39:54;99736.54;;;4.57;81.69
40794;BME280;26502;51.886;15.604;2023-12-20T17:45:20;99727.84;;;4.53;81.71
40794;BME280;26502;51.886;15.604;2023-12-20T17:50:49;99729.93;;;4.46;81.59
40794;BME280;26502;51.886;15.604;2023-12-20T17:56:15;99725.79;;;4.43;81.60
40794;BME280;26502;51.886;15.604;2023-12-20T18:01:41;99729.23;;;4.38;81.58
40794;BME280;26502;51.886;15.604;2023-12-20T18:07:07;99731.11;;;4.33;81.54
40794;BME280;26502;51.886;15.604;2023-12-20T18:12:33;99729.23;;;4.31;81.77
40794;BME280;26502;51.886;15.604;2023-12-20T18:18:00;99727.45;;;4.23;81.76
40794;BME280;26502;51.886;15.604;2023-12-20T18:23:26;99734.08;;;4.18;81.75
40794;BME280;26502;51.886;15.604;2023-12-20T18:28:52;99728.21;;;4.12;81.93
40794;BME280;26502;51.886;15.604;2023-12-20T18:34:19;99728.70;;;4.06;81.87
40794;BME280;26502;51.886;15.604;2023-12-20T18:39:45;99738.02;;;3.98;81.92
40794;BME280;26502;51.886;15.604;2023-12-20T18:45:12;99741.66;;;3.99;82.04
40794;BME280;26502;51.886;15.604;2023-12-20T18:50:38;99743.09;;;4.07;82.04
40794;BME280;26502;51.886;15.604;2023-12-20T18:56:08;99751.18;;;4.06;82.19
40794;BME280;26502;51.886;15.604;2023-12-20T19:01:34;99754.97;;;4.10;82.15
40794;BME280;26502;51.886;15.604;2023-12-20T19:07:00;99759.71;;;4.11;82.44
40794;BME280;26502;51.886;15.604;2023-12-20T19:12:25;99753.75;;;4.10;82.59
40794;BME280;26502;51.886;15.604;2023-12-20T19:17:52;99758.14;;;4.10;82.69
40794;BME280;26502;51.886;15.604;2023-12-20T19:23:18;99753.30;;;4.14;83.00
40794;BME280;26502;51.886;15.604;2023-12-20T19:28:44;99745.15;;;4.18;82.99
40794;BME280;26502;51.886;15.604;2023-12-20T19:34:13;99740.05;;;4.18;82.86
40794;BME280;26502;51.886;15.604;2023-12-20T19:39:39;99742.16;;;4.17;82.65
40794;BME280;26502;51.886;15.604;2023-12-20T19:45:06;99745.39;;;4.15;82.57
40794;BME280;26502;51.886;15.604;2023-12-20T19:50:34;99734.73;;;4.11;82.37
40794;BME280;26502;51.886;15.604;2023-12-20T19:56:00;99728.24;;;4.11;82.07
40794;BME280;26502;51.886;15.604;2023-12-20T20:01:26;99729.31;;;4.10;81.99
40794;BME280;26502;51.886;15.604;2023-12-20T20:06:53;99733.17;;;4.11;81.85
40794;BME280;26502;51.886;15.604;2023-12-20T20:12:19;99730.64;;;4.06;81.78
40794;BME280;26502;51.886;15.604;2023-12-20T20:17:45;99728.23;;;4.03;81.75
40794;BME280;26502;51.886;15.604;2023-12-20T20:23:11;99731.64;;;4.00;81.63
40794;BME280;26502;51.886;15.604;2023-12-20T20:28:37;99731.73;;;3.96;81.51
40794;BME280;26502;51.886;15.604;2023-12-20T20:34:04;99736.73;;;3.92;81.65
40794;BME280;26502;51.886;15.604;2023-12-20T20:39:31;99741.34;;;3.89;81.62
40794;BME280;26502;51.886;15.604;2023-12-20T20:44:59;99736.14;;;3.86;81.60
40794;BME280;26502;51.886;15.604;2023-12-20T20:50:25;99734.08;;;3.84;81.65
40794;BME280;26502;51.886;15.604;2023-12-20T20:55:53;99730.31;;;3.87;81.60
40794;BME280;26502;51.886;15.604;2023-12-20T21:01:19;99725.73;;;3.88;81.66
40794;BME280;26502;51.886;15.604;2023-12-20T21:06:46;99725.02;;;3.88;81.77
40794;BME280;26502;51.886;15.604;2023-12-20T21:12:13;99721.73;;;3.95;81.69
40794;BME280;26502;51.886;15.604;2023-12-20T21:17:40;99712.94;;;3.95;81.78
40794;BME280;26502;51.886;15.604;2023-12-20T21:23:08;99708.95;;;3.93;81.84
40794;BME280;26502;51.886;15.604;2023-12-20T21:28:35;99696.25;;;3.95;81.94
40794;BME280;26502;51.886;15.604;2023-12-20T21:34:01;99692.31;;;3.99;81.95
40794;BME280;26502;51.886;15.604;2023-12-20T21:39:28;99687.70;;;4.01;81.96
40794;BME280;26502;51.886;15.604;2023-12-20T21:44:54;99684.08;;;4.06;81.84
40794;BME280;26502;51.886;15.604;2023-12-20T21:50:21;99681.06;;;4.07;81.88
40794;BME280;26502;51.886;15.604;2023-12-20T21:55:47;99676.80;;;4.09;81.75
40794;BME280;26502;51.886;15.604;2023-12-20T22:01:13;99671.14;;;4.11;81.70
40794;BME280;26502;51.886;15.604;2023-12-20T22:06:41;99657.98;;;4.10;81.74
40794;BME280;26502;51.886;15.604;2023-12-20T22:12:08;99648.97;;;4.12;81.49
40794;BME280;26502;51.886;15.604;2023-12-20T22:17:34;99650.50;;;4.15;81.35
40794;BME280;26502;51.886;15.604;2023-12-20T22:23:00;99645.38;;;4.16;81.34
40794;BME280;26502;51.886;15.604;2023-12-20T22:28:27;99629.56;;;4.15;81.35
40794;BME280;26502;51.886;15.604;2023-12-20T22:33:53;99619.90;;;4.16;81.12
40794;BME280;26502;51.886;15.604;2023-12-20T22:39:19;99615.05;;;4.12;81.36
40794;BME280;26502;51.886;15.604;2023-12-20T22:44:46;99603.01;;;4.09;81.49
40794;BME280;26502;51.886;15.604;2023-12-20T22:50:19;99597.48;;;4.05;81.78
40794;BME280;26502;51.886;15.604;2023-12-20T22:55:48;99592.61;;;4.03;82.10
40794;BME280;26502;51.886;15.604;2023-12-20T23:01:15;99587.42;;;3.99;82.36
40794;BME280;26502;51.886;15.604;2023-12-20T23:06:42;99572.76;;;3.95;82.59
40794;BME280;26502;51.886;15.604;2023-12-20T23:12:09;99558.44;;;3.91;82.86
40794;BME280;26502;51.886;15.604;2023-12-20T23:17:36;99556.41;;;3.88;83.10
40794;BME280;26502;51.886;15.604;2023-12-20T23:23:02;99551.95;;;3.84;83.56
40794;BME280;26502;51.886;15.604;2023-12-20T23:28:28;99544.41;;;3.75;83.94
40794;BME280;26502;51.886;15.604;2023-12-20T23:33:54;99530.70;;;3.68;84.19
40794;BME280;26502;51.886;15.604;2023-12-20T23:39:20;99521.31;;;3.56;84.26
40794;BME280;26502;51.886;15.604;2023-12-20T23:44:46;99511.89;;;3.45;84.71
40794;BME280;26502;51.886;15.604;2023-12-20T23:50:12;99494.42;;;3.34;84.89
40794;BME280;26502;51.886;15.604;2023-12-20T23:55:39;99475.75;;;3.29;84.95
